Time,TemperatureF,DewpointF,PressureIn,WindDirection,WindDirectionDegrees,WindSpeedMPH,WindSpeedGustMPH,Humidity,HourlyPrecipIn,Conditions,Clouds,dailyrainin,SoftwareType,DateUTC
2014-08-27 00:01:00,74.7,70.9,30.03,SSW,207,0.0,0.0,88,0.00,,---,0.00,VWS V15.00,2014-08-27 04:01:00,
2014-08-27 00:06:00,74.4,70.9,30.03,SSW,207,0.0,0.0,89,0.00,,---,0.00,VWS V15.00,2014-08-27 04:06:00,
2014-08-27 00:11:00,74.3,71.2,30.03,SSW,207,0.0,0.0,90,0.00,,---,0.00,VWS V15.00,2014-08-27 04:11:00,
2014-08-27 00:16:00,74.1,71.3,30.03,SSW,207,0.0,0.0,91,0.00,,---,0.00,VWS V15.00,2014-08-27 04:16:00,
2014-08-27 00:21:00,74.0,71.2,30.04,SSW,207,0.0,0.0,91,0.00,,---,0.00,VWS V15.00,2014-08-27 04:21:00,
2014-08-27 00:26:00,73.8,71.0,30.04,SSW,207,0.0,0.0,91,0.00,,---,0.00,VWS V15.00,2014-08-27 04:26:00,
2014-08-27 00:31:00,73.7,70.9,30.03,SSW,207,0.0,0.0,91,0.00,,---,0.00,VWS V15.00,2014-08-27 04:31:00,
2014-08-27 00:36:00,73.6,71.1,30.04,SSW,207,0.0,0.0,92,0.00,,---,0.00,VWS V15.00,2014-08-27 04:36:00,
2014-08-27 00:41:00,73.5,71.0,30.04,SSW,207,0.0,0.0,92,0.00,,---,0.00,VWS V15.00,2014-08-27 04:41:00,
2014-08-27 00:46:00,73.3,70.8,30.04,SSW,207,0.0,0.0,92,0.00,,---,0.00,VWS V15.00,2014-08-27 04:46:00,
2014-08-27 00:51:00,73.2,70.7,30.04,SSW,207,0.0,0.0,92,0.00,,---,0.00,VWS V15.00,2014-08-27 04:51:00,
2014-08-27 00:56:00,73.0,70.9,30.04,SSW,207,0.0,0.0,93,0.00,,---,0.00,VWS V15.00,2014-08-27 04:56:00,
2014-08-27 01:01:00,72.9,70.8,30.04,SSW,207,0.0,0.0,93,0.00,,---,0.00,VWS V15.00,2014-08-27 05:01:00,
2014-08-27 01:06:00,72.8,70.7,30.04,SSW,207,0.0,0.0,93,0.00,,---,0.00,VWS V15.00,2014-08-27 05:06:00,
2014-08-27 01:11:00,72.8,71.0,30.04,SSW,207,0.0,0.0,94,0.00,,---,0.00,VWS V15.00,2014-08-27 05:11:00,
2014-08-27 01:16:00,72.7,70.9,30.04,SSW,207,0.0,0.0,94,0.00,,---,0.00,VWS V15.00,2014-08-27 05:16:00,
2014-08-27 01:21:00,72.7,70.9,30.03,SSW,207,0.0,0.0,94,0.00,,---,0.00,VWS V15.00,2014-08-27 05:21:00,
2014-08-27 01:26:00,72.7,70.9,30.04,SSW,207,0.0,0.0,94,0.00,,---,0.00,VWS V15.00,2014-08-27 05:26:00,
2014-08-27 01:31:00,72.6,70.8,30.04,SSW,207,0.0,0.0,94,0.00,,---,0.00,VWS V15.00,2014-08-27 05:31:00,
2014-08-27 01:36:00,72.6,70.8,30.03,SSW,207,0.0,0.0,94,0.00,,---,0.00,VWS V15.00,2014-08-27 05:36:00,
2014-08-27 01:41:00,72.5,70.7,30.03,SSW,207,0.0,0.0,94,0.00,,---,0.00,VWS V15.00,2014-08-27 05:41:00,
2014-08-27 01:46:00,72.5,70.7,30.03,SSW,207,0.0,0.0,94,0.00,,---,0.00,VWS V15.00,2014-08-27 05:46:00,
2014-08-27 01:51:00,72.4,70.6,30.03,SSW,207,0.0,0.0,94,0.00,,---,0.00,VWS V15.00,2014-08-27 05:51:00,
2014-08-27 01:56:00,72.2,70.4,30.03,SSW,207,0.0,0.0,94,0.00,,---,0.00,VWS V15.00,2014-08-27 05:56:00,
2014-08-27 02:01:00,72.1,70.3,30.03,SSW,207,0.0,0.0,94,0.00,,---,0.00,VWS V15.00,2014-08-27 06:01:00,
2014-08-27 02:06:00,72.1,70.3,30.03,SSW,207,0.0,0.0,94,0.00,,---,0.00,VWS V15.00,2014-08-27 06:06:00,
2014-08-27 02:11:00,72.0,70.2,30.03,SSW,207,0.0,0.0,94,0.00,,---,0.00,VWS V15.00,2014-08-27 06:11:00,
2014-08-27 02:16:00,71.9,70.1,30.03,SSW,207,0.0,0.0,94,0.00,,---,0.00,VWS V15.00,2014-08-27 06:16:00,
2014-08-27 02:21:00,71.7,69.9,30.02,SSW,207,0.0,0.0,94,0.00,,---,0.00,VWS V15.00,2014-08-27 06:21:00,
2014-08-27 02:26:00,71.6,70.1,30.02,SSW,207,0.0,0.0,95,0.00,,---,0.00,VWS V15.00,2014-08-27 06:26:00,
2014-08-27 02:31:00,71.6,70.1,30.02,SSW,207,0.0,0.0,95,0.00,,---,0.00,VWS V15.00,2014-08-27 06:31:00,
2014-08-27 02:36:00,71.6,70.1,30.03,SSW,207,0.0,0.0,95,0.00,,---,0.00,VWS V15.00,2014-08-27 06:36:00,
2014-08-27 02:41:00,71.6,70.1,30.03,SSW,207,0.0,0.0,95,0.00,,---,0.00,VWS V15.00,2014-08-27 06:41:00,
2014-08-27 02:46:00,71.8,70.3,30.03,SSW,207,0.0,0.0,95,0.00,,---,0.00,VWS V15.00,2014-08-27 06:46:00,
2014-08-27 02:51:00,71.8,70.3,30.03,SSW,207,0.0,0.0,95,0.00,,---,0.00,VWS V15.00,2014-08-27 06:51:00,
2014-08-27 02:56:00,71.7,70.2,30.03,SSW,207,0.0,0.0,95,0.00,,---,0.00,VWS V15.00,2014-08-27 06:56:00,
2014-08-27 03:01:00,71.5,70.0,30.03,SSW,207,0.0,0.0,95,0.00,,---,0.00,VWS V15.00,2014-08-27 07:01:00,
2014-08-27 03:06:00,71.5,70.0,30.03,SSW,207,0.0,0.0,95,0.00,,---,0.00,VWS V15.00,2014-08-27 07:06:00,
2014-08-27 03:11:00,71.4,69.9,30.02,SSW,207,0.0,0.0,95,0.00,,---,0.00,VWS V15.00,2014-08-27 07:11:00,
2014-08-27 03:16:00,71.4,69.9,30.02,SSW,207,0.0,0.0,95,0.00,,---,0.00,VWS V15.00,2014-08-27 07:16:00,
2014-08-27 03:21:00,71.4,70.2,30.02,SSW,207,0.0,0.0,96,0.00,,---,0.00,VWS V15.00,2014-08-27 07:21:00,
2014-08-27 03:26:00,71.4,69.9,30.03,SSW,207,0.0,0.0,95,0.00,,---,0.00,VWS V15.00,2014-08-27 07:26:00,
2014-08-27 03:31:00,71.3,69.8,30.02,SSW,207,0.0,0.0,95,0.00,,---,0.00,VWS V15.00,2014-08-27 07:31:00,
2014-08-27 03:36:00,71.2,69.7,30.02,SSW,207,0.0,0.0,95,0.00,,---,0.00,VWS V15.00,2014-08-27 07:36:00,
2014-08-27 03:41:00,71.1,69.6,30.02,SSW,207,0.0,0.0,95,0.00,,---,0.00,VWS V15.00,2014-08-27 07:41:00,
2014-08-27 03:46:00,71.0,69.5,30.02,SSW,207,0.0,0.0,95,0.00,,---,0.00,VWS V15.00,2014-08-27 07:46:00,
2014-08-27 03:51:00,70.9,69.7,30.02,SSW,207,0.0,0.0,96,0.00,,---,0.00,VWS V15.00,2014-08-27 07:51:00,
2014-08-27 03:56:00,70.8,69.6,30.02,SSW,207,0.0,0.0,96,0.00,,---,0.00,VWS V15.00,2014-08-27 07:56:00,
2014-08-27 04:01:00,70.8,69.6,30.02,SSW,207,0.0,0.0,96,0.00,,---,0.00,VWS V15.00,2014-08-27 08:01:00,
2014-08-27 04:06:00,70.8,69.6,30.02,SSW,207,0.0,0.0,96,0.00,,---,0.00,VWS V15.00,2014-08-27 08:06:00,
2014-08-27 04:11:00,70.7,69.5,30.02,SSW,207,0.0,0.0,96,0.00,,---,0.00,VWS V15.00,2014-08-27 08:11:00,
2014-08-27 04:16:00,70.6,69.4,30.02,SSW,207,0.0,0.0,96,0.00,,---,0.00,VWS V15.00,2014-08-27 08:16:00,
2014-08-27 04:21:00,70.5,69.3,30.02,SSW,207,0.0,0.0,96,0.00,,---,0.00,VWS V15.00,2014-08-27 08:21:00,
2014-08-27 04:26:00,70.4,69.2,30.02,SSW,207,0.0,0.0,96,0.00,,---,0.00,VWS V15.00,2014-08-27 08:26:00,
2014-08-27 04:31:00,70.2,69.0,30.02,SSW,207,0.0,0.0,96,0.00,,---,0.00,VWS V15.00,2014-08-27 08:31:00,
2014-08-27 04:36:00,70.2,69.3,30.02,SSW,207,0.0,0.0,97,0.00,,---,0.00,VWS V15.00,2014-08-27 08:36:00,
2014-08-27 04:41:00,70.4,69.5,30.02,SSW,207,0.0,0.0,97,0.00,,---,0.00,VWS V15.00,2014-08-27 08:41:00,
2014-08-27 04:46:00,70.5,69.6,30.02,SSW,207,0.0,0.0,97,0.00,,---,0.00,VWS V15.00,2014-08-27 08:46:00,
2014-08-27 04:51:00,70.5,69.6,30.02,SSW,207,0.0,0.0,97,0.00,,---,0.00,VWS V15.00,2014-08-27 08:51:00,
2014-08-27 04:55:00,70.4,69.5,30.02,SSW,207,0.0,0.0,97,0.00,,---,0.00,VWS V15.00,2014-08-27 08:55:00,
2014-08-27 05:00:00,70.3,69.4,30.02,SSW,207,0.0,0.0,97,0.00,,---,0.00,VWS V15.00,2014-08-27 09:00:00,
2014-08-27 05:05:00,70.3,69.4,30.02,SSW,207,0.0,0.0,97,0.00,,---,0.00,VWS V15.00,2014-08-27 09:05:00,
2014-08-27 05:10:00,70.2,69.3,30.02,SSW,207,0.0,0.0,97,0.00,,---,0.00,VWS V15.00,2014-08-27 09:10:00,
2014-08-27 05:15:00,70.3,69.4,30.02,SSW,207,0.0,0.0,97,0.00,,---,0.00,VWS V15.00,2014-08-27 09:15:00,
2014-08-27 05:20:00,70.3,69.4,30.02,SSW,207,0.0,0.0,97,0.00,,---,0.00,VWS V15.00,2014-08-27 09:20:00,
2014-08-27 05:25:00,70.3,69.4,30.02,SSW,207,0.0,0.0,97,0.00,,---,0.00,VWS V15.00,2014-08-27 09:25:00,
2014-08-27 05:30:00,70.2,69.3,30.02,SSW,207,0.0,0.0,97,0.00,,---,0.00,VWS V15.00,2014-08-27 09:30:00,
2014-08-27 05:35:00,70.0,69.1,30.02,SSW,207,0.0,0.0,97,0.00,,---,0.00,VWS V15.00,2014-08-27 09:35:00,
2014-08-27 05:40:00,70.1,69.5,30.02,SSW,207,0.0,0.0,98,0.00,,---,0.00,VWS V15.00,2014-08-27 09:40:00,
2014-08-27 05:45:00,70.0,69.4,30.02,SSW,207,0.0,0.0,98,0.00,,---,0.00,VWS V15.00,2014-08-27 09:45:00,
2014-08-27 05:50:00,70.1,69.5,30.02,SSW,207,0.0,0.0,98,0.00,,---,0.00,VWS V15.00,2014-08-27 09:50:00,
2014-08-27 05:55:00,70.1,69.5,30.02,SSW,207,0.0,0.0,98,0.00,,---,0.00,VWS V15.00,2014-08-27 09:55:00,
2014-08-27 06:00:00,70.0,69.4,30.02,SSW,207,0.0,0.0,98,0.00,,---,0.00,VWS V15.00,2014-08-27 10:00:00,
2014-08-27 06:05:00,69.9,69.3,30.02,SSW,207,0.0,0.0,98,0.00,,---,0.00,VWS V15.00,2014-08-27 10:05:00,
2014-08-27 06:10:00,69.9,69.3,30.02,SSW,207,0.0,0.0,98,0.00,,---,0.00,VWS V15.00,2014-08-27 10:10:00,
2014-08-27 06:15:00,70.1,69.5,30.02,SSW,207,0.0,0.0,98,0.00,,---,0.00,VWS V15.00,2014-08-27 10:15:00,
2014-08-27 06:20:00,70.2,69.6,30.02,SSW,207,0.0,0.0,98,0.00,,---,0.00,VWS V15.00,2014-08-27 10:20:00,
2014-08-27 06:25:00,70.2,69.6,30.02,SSW,207,0.0,0.0,98,0.00,,---,0.00,VWS V15.00,2014-08-27 10:25:00,
2014-08-27 06:30:00,70.2,69.6,30.02,SSW,207,0.0,0.0,98,0.00,,---,0.00,VWS V15.00,2014-08-27 10:30:00,
2014-08-27 06:35:00,70.2,69.6,30.03,SSW,207,0.0,0.0,98,0.00,,---,0.00,VWS V15.00,2014-08-27 10:35:00,
2014-08-27 06:40:00,70.1,69.5,30.03,SSW,207,0.0,0.0,98,0.00,,---,0.00,VWS V15.00,2014-08-27 10:40:00,
2014-08-27 06:45:00,69.9,69.3,30.03,SSW,207,0.0,0.0,98,0.00,,---,0.00,VWS V15.00,2014-08-27 10:45:00,
2014-08-27 06:50:00,70.1,69.5,30.03,SSW,207,0.0,0.0,98,0.00,,---,0.00,VWS V15.00,2014-08-27 10:50:00,
2014-08-27 06:55:00,70.1,69.5,30.03,SSW,207,0.0,0.0,98,0.00,,---,0.00,VWS V15.00,2014-08-27 10:55:00,
2014-08-27 07:00:00,70.1,69.5,30.03,SSW,207,0.0,0.0,98,0.00,,---,0.00,VWS V15.00,2014-08-27 11:00:00,
2014-08-27 07:05:00,69.9,69.3,30.04,SSW,207,0.0,0.0,98,0.00,,---,0.00,VWS V15.00,2014-08-27 11:05:00,
2014-08-27 07:10:00,69.8,69.2,30.03,SSW,207,0.0,0.0,98,0.00,,---,0.00,VWS V15.00,2014-08-27 11:10:00,
2014-08-27 07:15:00,69.7,69.1,30.03,SSW,207,0.0,0.0,98,0.00,,---,0.00,VWS V15.00,2014-08-27 11:15:00,
2014-08-27 07:20:00,69.5,68.9,30.03,SSW,207,0.0,0.0,98,0.00,,---,0.00,VWS V15.00,2014-08-27 11:20:00,
2014-08-27 07:25:00,69.6,69.0,30.03,SSW,207,0.0,0.0,98,0.00,,---,0.00,VWS V15.00,2014-08-27 11:25:00,
2014-08-27 07:30:00,69.7,69.4,30.03,SSW,207,0.0,0.0,99,0.00,,---,0.00,VWS V15.00,2014-08-27 11:30:00,
2014-08-27 07:35:00,69.8,69.5,30.03,SSW,207,0.0,0.0,99,0.00,,---,0.00,VWS V15.00,2014-08-27 11:35:00,
2014-08-27 07:40:00,69.9,69.6,30.03,SSW,207,0.0,0.0,99,0.00,,---,0.00,VWS V15.00,2014-08-27 11:40:00,
2014-08-27 07:45:00,69.9,69.6,30.03,SSW,207,0.0,0.0,99,0.00,,---,0.00,VWS V15.00,2014-08-27 11:45:00,
2014-08-27 07:50:00,70.0,69.7,30.03,SSW,207,0.0,0.0,99,0.00,,---,0.00,VWS V15.00,2014-08-27 11:50:00,
2014-08-27 07:55:00,70.3,70.0,30.03,SSW,207,0.0,0.0,99,0.00,,---,0.00,VWS V15.00,2014-08-27 11:55:00,
2014-08-27 08:00:00,70.5,70.2,30.04,SSW,207,0.0,0.0,99,0.00,,---,0.00,VWS V15.00,2014-08-27 12:00:00,
2014-08-27 08:05:00,70.8,70.5,30.04,SSW,207,0.0,0.0,99,0.00,,---,0.00,VWS V15.00,2014-08-27 12:05:00,
2014-08-27 08:10:00,71.2,70.9,30.04,SSW,207,0.0,0.0,99,0.00,,---,0.00,VWS V15.00,2014-08-27 12:10:00,
2014-08-27 08:15:00,71.7,71.4,30.04,SSW,207,0.0,0.0,99,0.00,,---,0.00,VWS V15.00,2014-08-27 12:15:00,
2014-08-27 08:20:00,72.4,72.1,30.04,SSW,207,0.0,0.0,99,0.00,,---,0.00,VWS V15.00,2014-08-27 12:20:00,
2014-08-27 08:25:00,72.7,72.1,30.04,SSW,211,0.0,0.0,98,0.00,,---,0.00,VWS V15.00,2014-08-27 12:25:00,
2014-08-27 08:30:00,73.3,72.4,30.04,SSW,211,0.0,0.0,97,0.00,,---,0.00,VWS V15.00,2014-08-27 12:30:00,
2014-08-27 08:35:00,73.8,72.6,30.04,SSW,211,0.0,0.0,96,0.00,,---,0.00,VWS V15.00,2014-08-27 12:35:00,
2014-08-27 08:40:00,74.3,72.8,30.04,SW,233,0.0,0.0,95,0.00,,---,0.00,VWS V15.00,2014-08-27 12:40:00,
2014-08-27 08:45:00,74.8,73.0,30.04,WSW,243,0.0,1.0,94,0.00,,---,0.00,VWS V15.00,2014-08-27 12:45:00,
2014-08-27 08:50:00,75.1,72.9,30.04,WSW,243,0.0,1.0,93,0.00,,---,0.00,VWS V15.00,2014-08-27 12:50:00,
2014-08-27 08:55:00,75.6,73.4,30.04,WSW,243,0.0,0.0,93,0.00,,---,0.00,VWS V15.00,2014-08-27 12:55:00,
2014-08-27 09:00:00,76.4,73.9,30.04,WSW,243,0.0,0.0,92,0.00,,---,0.00,VWS V15.00,2014-08-27 13:00:00,
2014-08-27 09:05:00,76.7,73.6,30.04,WSW,246,0.0,0.0,90,0.00,,---,0.00,VWS V15.00,2014-08-27 13:05:00,
2014-08-27 09:10:00,77.1,73.9,30.04,WSW,248,0.0,0.0,90,0.00,,---,0.00,VWS V15.00,2014-08-27 13:10:00,
2014-08-27 09:15:00,77.5,74.0,30.04,West,267,0.0,0.0,89,0.00,,---,0.00,VWS V15.00,2014-08-27 13:15:00,
2014-08-27 09:20:00,77.9,74.1,30.04,West,274,0.0,0.0,88,0.00,,---,0.00,VWS V15.00,2014-08-27 13:20:00,
2014-08-27 09:25:00,78.3,74.5,30.04,West,274,0.0,0.0,88,0.00,,---,0.00,VWS V15.00,2014-08-27 13:25:00,
2014-08-27 09:30:00,78.4,74.6,30.03,West,260,0.0,0.0,88,0.00,,---,0.00,VWS V15.00,2014-08-27 13:30:00,
2014-08-27 09:35:00,78.7,74.5,30.03,West,260,0.0,0.0,87,0.00,,---,0.00,VWS V15.00,2014-08-27 13:35:00,
2014-08-27 09:40:00,79.4,75.2,30.03,West,260,0.0,0.0,87,0.00,,---,0.00,VWS V15.00,2014-08-27 13:40:00,
2014-08-27 09:45:00,80.4,75.5,30.03,West,260,0.0,0.0,85,0.00,,---,0.00,VWS V15.00,2014-08-27 13:45:00,
2014-08-27 09:50:00,80.9,74.9,30.03,WNW,283,1.0,1.0,82,0.00,,---,0.00,VWS V15.00,2014-08-27 13:50:00,
2014-08-27 09:55:00,81.0,74.6,30.03,NE,37,0.0,3.0,81,0.00,,---,0.00,VWS V15.00,2014-08-27 13:55:00,
2014-08-27 10:00:00,81.4,75.0,30.03,NE,34,0.0,3.0,81,0.00,,---,0.00,VWS V15.00,2014-08-27 14:00:00,
2014-08-27 10:05:00,81.7,74.9,30.03,NW,305,0.0,1.0,80,0.00,,---,0.00,VWS V15.00,2014-08-27 14:05:00,
2014-08-27 10:10:00,82.1,74.9,30.03,NW,305,0.0,1.0,79,0.00,,---,0.00,VWS V15.00,2014-08-27 14:10:00,
2014-08-27 10:15:00,83.0,75.8,30.03,NNW,329,0.0,0.0,79,0.00,,---,0.00,VWS V15.00,2014-08-27 14:15:00,
2014-08-27 10:20:00,84.1,76.1,30.03,NW,326,0.0,0.0,77,0.00,,---,0.00,VWS V15.00,2014-08-27 14:20:00,
2014-08-27 10:25:00,83.6,75.6,30.03,West,270,0.0,1.0,77,0.00,,---,0.00,VWS V15.00,2014-08-27 14:25:00,
2014-08-27 10:30:00,83.6,75.6,30.03,West,270,0.0,1.0,77,0.00,,---,0.00,VWS V15.00,2014-08-27 14:30:00,
2014-08-27 10:35:00,84.0,75.6,30.04,ENE,68,1.0,1.0,76,0.00,,---,0.00,VWS V15.00,2014-08-27 14:35:00,
2014-08-27 10:40:00,84.7,76.3,30.04,SW,225,0.0,2.0,76,0.00,,---,0.00,VWS V15.00,2014-08-27 14:40:00,
2014-08-27 10:45:00,84.5,75.7,30.04,NNE,13,1.0,3.0,75,0.00,,---,0.00,VWS V15.00,2014-08-27 14:45:00,
2014-08-27 10:50:00,84.4,75.6,30.04,West,274,1.0,3.0,75,0.00,,---,0.00,VWS V15.00,2014-08-27 14:50:00,
2014-08-27 10:55:00,84.3,74.7,30.04,West,278,0.0,1.0,73,0.00,,---,0.00,VWS V15.00,2014-08-27 14:55:00,
2014-08-27 11:00:00,84.7,74.7,30.04,WNW,294,1.0,1.0,72,0.00,,---,0.00,VWS V15.00,2014-08-27 15:00:00,
2014-08-27 11:05:00,85.0,73.7,30.04,West,264,1.0,1.0,69,0.00,,---,0.00,VWS V15.00,2014-08-27 15:05:00,
2014-08-27 11:10:00,85.0,73.3,30.04,WSW,256,1.0,3.0,68,0.00,,---,0.00,VWS V15.00,2014-08-27 15:10:00,
2014-08-27 11:15:00,85.4,73.6,30.04,NW,325,2.0,3.0,68,0.00,,---,0.00,VWS V15.00,2014-08-27 15:15:00,
2014-08-27 11:20:00,85.5,73.3,30.04,SSW,211,1.0,4.0,67,0.00,,---,0.00,VWS V15.00,2014-08-27 15:20:00,
2014-08-27 11:25:00,86.3,72.7,30.05,ENE,64,0.0,2.0,64,0.00,,---,0.00,VWS V15.00,2014-08-27 15:25:00,
2014-08-27 11:30:00,87.1,73.9,30.04,NNE,26,3.0,4.0,65,0.00,,---,0.00,VWS V15.00,2014-08-27 15:30:00,
2014-08-27 11:35:00,87.0,73.4,30.04,East,85,2.0,3.0,64,0.00,,---,0.00,VWS V15.00,2014-08-27 15:35:00,
2014-08-27 11:40:00,87.1,73.4,30.04,NNW,345,5.0,6.0,64,0.00,,---,0.00,VWS V15.00,2014-08-27 15:40:00,
2014-08-27 11:45:00,86.5,72.9,30.04,NNW,340,2.0,4.0,64,0.00,,---,0.00,VWS V15.00,2014-08-27 15:45:00,
2014-08-27 11:50:00,86.8,74.5,30.04,NW,306,0.0,4.0,67,0.00,,---,0.00,VWS V15.00,2014-08-27 15:50:00,
2014-08-27 11:55:00,87.2,74.9,30.04,East,82,0.0,3.0,67,0.00,,---,0.00,VWS V15.00,2014-08-27 15:55:00,
2014-08-27 12:00:00,87.4,75.6,30.04,West,269,0.0,3.0,68,0.00,,---,0.00,VWS V15.00,2014-08-27 16:00:00,
2014-08-27 12:05:00,88.0,75.2,30.04,SSE,147,0.0,1.0,66,0.00,,---,0.00,VWS V15.00,2014-08-27 16:05:00,
2014-08-27 12:10:00,88.1,73.9,30.04,West,280,1.0,2.0,63,0.00,,---,0.00,VWS V15.00,2014-08-27 16:10:00,
2014-08-27 12:15:00,88.2,74.0,30.04,NE,41,0.0,2.0,63,0.00,,---,0.00,VWS V15.00,2014-08-27 16:15:00,
2014-08-27 12:20:00,88.5,74.3,30.04,WNW,291,0.0,2.0,63,0.00,,---,0.00,VWS V15.00,2014-08-27 16:20:00,
2014-08-27 12:25:00,88.7,75.0,30.03,West,276,1.0,2.0,64,0.00,,---,0.00,VWS V15.00,2014-08-27 16:25:00,
2014-08-27 12:30:00,88.7,75.0,30.03,WNW,295,1.0,2.0,64,0.00,,---,0.00,VWS V15.00,2014-08-27 16:30:00,
2014-08-27 12:35:00,88.5,74.3,30.03,WNW,285,1.0,1.0,63,0.00,,---,0.00,VWS V15.00,2014-08-27 16:35:00,
2014-08-27 12:40:00,89.3,75.1,30.03,ESE,105,1.0,1.0,63,0.00,,---,0.00,VWS V15.00,2014-08-27 16:40:00,
2014-08-27 12:45:00,89.5,74.8,30.02,WNW,290,0.0,2.0,62,0.00,,---,0.00,VWS V15.00,2014-08-27 16:45:00,
2014-08-27 12:50:00,89.6,75.8,30.02,ESE,110,3.0,3.0,64,0.00,,---,0.00,VWS V15.00,2014-08-27 16:50:00,
2014-08-27 12:55:00,89.7,75.9,30.02,WNW,287,1.0,1.0,64,0.00,,---,0.00,VWS V15.00,2014-08-27 16:55:00,
2014-08-27 13:00:00,89.9,75.1,30.02,West,276,1.0,3.0,62,0.00,,---,0.00,VWS V15.00,2014-08-27 17:00:00,
2014-08-27 13:05:00,89.7,75.4,30.01,WNW,290,2.0,3.0,63,0.00,,---,0.00,VWS V15.00,2014-08-27 17:05:00,
2014-08-27 13:10:00,89.4,75.2,30.01,West,267,1.0,3.0,63,0.00,,---,0.00,VWS V15.00,2014-08-27 17:10:00,
2014-08-27 13:15:00,89.3,76.0,30.02,WNW,287,0.0,2.0,65,0.00,,---,0.00,VWS V15.00,2014-08-27 17:15:00,
2014-08-27 13:20:00,89.3,75.5,30.02,North,9,2.0,3.0,64,0.00,,---,0.00,VWS V15.00,2014-08-27 17:20:00,
2014-08-27 13:25:00,89.0,75.2,30.02,West,281,2.0,4.0,64,0.00,,---,0.00,VWS V15.00,2014-08-27 17:25:00,
2014-08-27 13:30:00,88.9,76.1,30.02,West,267,1.0,4.0,66,0.00,,---,0.00,VWS V15.00,2014-08-27 17:30:00,
2014-08-27 13:35:00,89.6,76.3,30.01,WSW,243,2.0,3.0,65,0.00,,---,0.00,VWS V15.00,2014-08-27 17:35:00,
2014-08-27 13:40:00,89.9,75.6,30.01,WSW,253,1.0,3.0,63,0.00,,---,0.00,VWS V15.00,2014-08-27 17:40:00,
2014-08-27 13:45:00,90.2,76.4,30.01,NNW,337,1.0,2.0,64,0.00,,---,0.00,VWS V15.00,2014-08-27 17:45:00,
2014-08-27 13:50:00,89.8,75.5,30.01,West,271,2.0,3.0,63,0.00,,---,0.00,VWS V15.00,2014-08-27 17:50:00,
2014-08-27 13:55:00,89.3,74.6,30.01,West,271,1.0,3.0,62,0.00,,---,0.00,VWS V15.00,2014-08-27 17:55:00,
2014-08-27 14:00:00,89.0,75.2,30.00,East,94,0.0,5.0,64,0.00,,---,0.00,VWS V15.00,2014-08-27 18:00:00,
2014-08-27 14:05:00,89.5,75.2,30.00,North,359,1.0,3.0,63,0.00,,---,0.00,VWS V15.00,2014-08-27 18:05:00,
2014-08-27 14:10:00,89.2,74.0,30.00,NW,304,2.0,4.0,61,0.00,,---,0.00,VWS V15.00,2014-08-27 18:10:00,
2014-08-27 14:15:00,89.6,74.4,30.00,West,276,4.0,5.0,61,0.00,,---,0.00,VWS V15.00,2014-08-27 18:15:00,
2014-08-27 14:20:00,89.4,74.2,30.00,West,280,3.0,5.0,61,0.00,,---,0.00,VWS V15.00,2014-08-27 18:20:00,
2014-08-27 14:25:00,89.9,74.2,30.00,West,264,2.0,4.0,60,0.00,,---,0.00,VWS V15.00,2014-08-27 18:25:00,
2014-08-27 14:30:00,89.8,73.6,30.00,NW,318,1.0,4.0,59,0.00,,---,0.00,VWS V15.00,2014-08-27 18:30:00,
2014-08-27 14:35:00,89.7,74.0,30.00,West,273,0.0,3.0,60,0.00,,---,0.00,VWS V15.00,2014-08-27 18:35:00,
2014-08-27 14:40:00,90.5,74.7,30.00,WNW,283,1.0,3.0,60,0.00,,---,0.00,VWS V15.00,2014-08-27 18:40:00,
2014-08-27 14:45:00,90.2,74.4,30.00,WNW,290,1.0,4.0,60,0.00,,---,0.00,VWS V15.00,2014-08-27 18:45:00,
2014-08-27 14:50:00,90.3,75.0,29.99,NW,310,1.0,5.0,61,0.00,,---,0.00,VWS V15.00,2014-08-27 18:50:00,
2014-08-27 14:55:00,90.5,75.2,29.99,NNW,344,1.0,2.0,61,0.00,,---,0.00,VWS V15.00,2014-08-27 18:55:00,
2014-08-27 15:00:00,90.6,74.8,29.99,West,264,2.0,5.0,60,0.00,,---,0.00,VWS V15.00,2014-08-27 19:00:00,
2014-08-27 15:05:00,90.5,74.2,29.99,West,276,2.0,3.0,59,0.00,,---,0.00,VWS V15.00,2014-08-27 19:05:00,
2014-08-27 15:10:00,90.2,74.4,29.99,WNW,292,1.0,3.0,60,0.00,,---,0.00,VWS V15.00,2014-08-27 19:10:00,
2014-08-27 15:15:00,90.2,74.4,29.99,WNW,294,1.0,2.0,60,0.00,,---,0.00,VWS V15.00,2014-08-27 19:15:00,
2014-08-27 15:20:00,90.2,73.9,29.99,West,273,3.0,4.0,59,0.00,,---,0.00,VWS V15.00,2014-08-27 19:20:00,
2014-08-27 15:25:00,90.1,74.3,29.99,NNE,12,2.0,4.0,60,0.00,,---,0.00,VWS V15.00,2014-08-27 19:25:00,
2014-08-27 15:30:00,90.4,73.6,29.98,WNW,285,2.0,5.0,58,0.00,,---,0.00,VWS V15.00,2014-08-27 19:30:00,
2014-08-27 15:35:00,90.4,73.1,29.98,WNW,290,1.0,3.0,57,0.00,,---,0.00,VWS V15.00,2014-08-27 19:35:00,
2014-08-27 15:40:00,91.0,73.7,29.98,NW,325,2.0,4.0,57,0.00,,---,0.00,VWS V15.00,2014-08-27 19:40:00,
2014-08-27 15:45:00,91.0,73.7,29.98,WNW,300,1.0,3.0,57,0.00,,---,0.00,VWS V15.00,2014-08-27 19:45:00,
2014-08-27 15:50:00,91.1,74.3,29.98,NW,326,2.0,5.0,58,0.00,,---,0.00,VWS V15.00,2014-08-27 19:50:00,
2014-08-27 15:55:00,91.3,73.9,29.98,West,259,2.0,6.0,57,0.00,,---,0.00,VWS V15.00,2014-08-27 19:55:00,
2014-08-27 16:00:00,90.8,73.5,29.98,West,269,4.0,7.0,57,0.00,,---,0.00,VWS V15.00,2014-08-27 20:00:00,
2014-08-27 16:05:00,90.6,73.8,29.98,West,262,0.0,3.0,58,0.00,,---,0.00,VWS V15.00,2014-08-27 20:05:00,
2014-08-27 16:10:00,90.9,75.1,29.98,NNW,346,3.0,5.0,60,0.00,,---,0.00,VWS V15.00,2014-08-27 20:10:00,
2014-08-27 16:15:00,90.8,75.0,29.97,NE,37,4.0,4.0,60,0.00,,---,0.00,VWS V15.00,2014-08-27 20:15:00,
2014-08-27 16:20:00,90.1,74.8,29.97,NW,326,2.0,6.0,61,0.00,,---,0.00,VWS V15.00,2014-08-27 20:20:00,
2014-08-27 16:25:00,89.6,74.9,29.97,NNW,348,2.0,5.0,62,0.00,,---,0.00,VWS V15.00,2014-08-27 20:25:00,
2014-08-27 16:30:00,89.7,74.5,29.97,WSW,245,2.0,5.0,61,0.00,,---,0.00,VWS V15.00,2014-08-27 20:30:00,
2014-08-27 16:35:00,89.7,74.5,29.97,West,262,3.0,5.0,61,0.00,,---,0.00,VWS V15.00,2014-08-27 20:35:00,
2014-08-27 16:40:00,89.8,75.5,29.96,WNW,283,1.0,5.0,63,0.00,,---,0.00,VWS V15.00,2014-08-27 20:40:00,
2014-08-27 16:45:00,89.9,75.1,29.96,West,271,1.0,2.0,62,0.00,,---,0.00,VWS V15.00,2014-08-27 20:45:00,
2014-08-27 16:50:00,89.8,75.1,29.96,West,271,1.0,2.0,62,0.00,,---,0.00,VWS V15.00,2014-08-27 20:50:00,
2014-08-27 16:55:00,89.6,74.9,29.96,West,266,0.0,3.0,62,0.00,,---,0.00,VWS V15.00,2014-08-27 20:55:00,
2014-08-27 17:00:00,89.5,74.3,29.96,WSW,253,0.0,5.0,61,0.00,,---,0.00,VWS V15.00,2014-08-27 21:00:00,
2014-08-27 17:05:00,89.6,74.9,29.96,NNW,333,0.0,1.0,62,0.00,,---,0.00,VWS V15.00,2014-08-27 21:05:00,
2014-08-27 17:10:00,89.7,75.9,29.96,NW,318,1.0,2.0,64,0.00,,---,0.00,VWS V15.00,2014-08-27 21:10:00,
2014-08-27 17:15:00,89.8,75.5,29.96,West,266,1.0,2.0,63,0.00,,---,0.00,VWS V15.00,2014-08-27 21:15:00,
2014-08-27 17:20:00,89.5,74.8,29.96,West,279,1.0,4.0,62,0.00,,---,0.00,VWS V15.00,2014-08-27 21:20:00,
2014-08-27 17:25:00,89.5,74.8,29.96,West,273,1.0,3.0,62,0.00,,---,0.00,VWS V15.00,2014-08-27 21:25:00,
2014-08-27 17:30:00,89.6,74.9,29.96,WSW,257,4.0,4.0,62,0.00,,---,0.00,VWS V15.00,2014-08-27 21:30:00,
2014-08-27 17:35:00,89.6,75.3,29.96,NW,309,1.0,3.0,63,0.00,,---,0.00,VWS V15.00,2014-08-27 21:35:00,
2014-08-27 17:40:00,89.5,74.8,29.96,WSW,253,1.0,3.0,62,0.00,,---,0.00,VWS V15.00,2014-08-27 21:40:00,
2014-08-27 17:45:00,89.1,75.3,29.95,West,261,1.0,3.0,64,0.00,,---,0.00,VWS V15.00,2014-08-27 21:45:00,
2014-08-27 17:50:00,88.9,75.2,29.95,NW,321,2.0,3.0,64,0.00,,---,0.00,VWS V15.00,2014-08-27 21:50:00,
2014-08-27 17:55:00,89.0,75.2,29.95,WSW,248,6.0,6.0,64,0.00,,---,0.00,VWS V15.00,2014-08-27 21:55:00,
2014-08-27 18:00:00,88.8,75.1,29.95,NNW,328,1.0,7.0,64,0.00,,---,0.00,VWS V15.00,2014-08-27 22:00:00,
2014-08-27 18:05:00,88.6,75.3,29.95,West,266,3.0,3.0,65,0.00,,---,0.00,VWS V15.00,2014-08-27 22:05:00,
2014-08-27 18:10:00,88.4,75.6,29.95,West,266,0.0,5.0,66,0.00,,---,0.00,VWS V15.00,2014-08-27 22:10:00,
2014-08-27 18:15:00,88.1,74.9,29.95,WNW,297,1.0,4.0,65,0.00,,---,0.00,VWS V15.00,2014-08-27 22:15:00,
2014-08-27 18:20:00,87.8,75.0,29.95,West,267,1.0,4.0,66,0.00,,---,0.00,VWS V15.00,2014-08-27 22:20:00,
2014-08-27 18:25:00,87.6,75.3,29.95,NW,317,1.0,5.0,67,0.00,,---,0.00,VWS V15.00,2014-08-27 22:25:00,
2014-08-27 18:30:00,87.7,75.4,29.94,NW,314,0.0,5.0,67,0.00,,---,0.00,VWS V15.00,2014-08-27 22:30:00,
2014-08-27 18:35:00,87.7,74.5,29.94,WNW,288,2.0,8.0,65,0.00,,---,0.00,VWS V15.00,2014-08-27 22:35:00,
2014-08-27 18:40:00,87.2,74.5,29.94,NW,323,2.0,8.0,66,0.00,,---,0.00,VWS V15.00,2014-08-27 22:40:00,
2014-08-27 18:45:00,87.1,74.4,29.94,NW,316,1.0,2.0,66,0.00,,---,0.00,VWS V15.00,2014-08-27 22:45:00,
2014-08-27 18:50:00,86.9,74.2,29.94,NW,311,1.0,4.0,66,0.00,,---,0.00,VWS V15.00,2014-08-27 22:50:00,
2014-08-27 18:55:00,86.8,74.5,29.95,NW,308,1.0,2.0,67,0.00,,---,0.00,VWS V15.00,2014-08-27 22:55:00,
2014-08-27 19:00:00,86.7,74.4,29.95,WNW,301,1.0,9.0,67,0.00,,---,0.00,VWS V15.00,2014-08-27 23:00:00,
2014-08-27 19:05:00,86.5,74.2,29.95,NNW,341,1.0,3.0,67,0.00,,---,0.00,VWS V15.00,2014-08-27 23:05:00,
2014-08-27 19:10:00,86.1,73.9,29.95,NW,304,1.0,4.0,67,0.00,,---,0.00,VWS V15.00,2014-08-27 23:10:00,
2014-08-27 19:15:00,85.7,73.5,29.95,West,269,1.0,2.0,67,0.00,,---,0.00,VWS V15.00,2014-08-27 23:15:00,
2014-08-27 19:20:00,85.5,73.3,29.95,NW,308,1.0,2.0,67,0.00,,---,0.00,VWS V15.00,2014-08-27 23:20:00,
2014-08-27 19:25:00,85.4,73.6,29.95,West,267,0.0,1.0,68,0.00,,---,0.00,VWS V15.00,2014-08-27 23:25:00,
2014-08-27 19:30:00,85.4,73.6,29.95,WNW,298,1.0,2.0,68,0.00,,---,0.00,VWS V15.00,2014-08-27 23:30:00,
2014-08-27 19:35:00,85.2,73.4,29.96,WSW,256,1.0,1.0,68,0.00,,---,0.00,VWS V15.00,2014-08-27 23:35:00,
2014-08-27 19:40:00,84.9,73.2,29.96,NNW,335,0.0,1.0,68,0.00,,---,0.00,VWS V15.00,2014-08-27 23:40:00,
2014-08-27 19:45:00,84.7,73.4,29.96,NNW,338,0.0,0.0,69,0.00,,---,0.00,VWS V15.00,2014-08-27 23:45:00,
2014-08-27 19:50:00,84.3,73.5,29.96,NNW,335,0.0,0.0,70,0.00,,---,0.00,VWS V15.00,2014-08-27 23:50:00,
2014-08-27 19:55:00,84.0,73.2,29.96,West,266,0.0,0.0,70,0.00,,---,0.00,VWS V15.00,2014-08-27 23:55:00,
2014-08-27 20:00:00,83.8,73.0,29.96,North,351,0.0,2.0,70,0.00,,---,0.00,VWS V15.00,2014-08-28 00:00:00,
2014-08-27 20:05:00,83.6,73.2,29.97,NNE,18,0.0,1.0,71,0.00,,---,0.00,VWS V15.00,2014-08-28 00:05:00,
2014-08-27 20:10:00,83.3,73.3,29.97,NW,320,0.0,2.0,72,0.00,,---,0.00,VWS V15.00,2014-08-28 00:10:00,
2014-08-27 20:15:00,83.2,73.2,29.97,NNE,18,1.0,4.0,72,0.00,,---,0.00,VWS V15.00,2014-08-28 00:15:00,
2014-08-27 20:20:00,83.0,73.5,29.97,NNE,15,0.0,4.0,73,0.00,,---,0.00,VWS V15.00,2014-08-28 00:20:00,
2014-08-27 20:25:00,82.8,73.3,29.97,NNE,15,0.0,0.0,73,0.00,,---,0.00,VWS V15.00,2014-08-28 00:25:00,
2014-08-27 20:29:00,82.7,73.6,29.97,NNE,17,0.0,0.0,74,0.00,,---,0.00,VWS V15.00,2014-08-28 00:29:00,
2014-08-27 20:34:00,82.5,73.4,29.97,NNE,18,0.0,0.0,74,0.00,,---,0.00,VWS V15.00,2014-08-28 00:34:00,
2014-08-27 20:39:00,82.3,73.6,29.97,NNE,17,0.0,0.0,75,0.00,,---,0.00,VWS V15.00,2014-08-28 00:39:00,
2014-08-27 20:44:00,82.2,73.9,29.97,NNE,18,0.0,0.0,76,0.00,,---,0.00,VWS V15.00,2014-08-28 00:44:00,
2014-08-27 20:49:00,82.1,73.8,29.97,NNE,18,0.0,0.0,76,0.00,,---,0.00,VWS V15.00,2014-08-28 00:49:00,
2014-08-27 20:54:00,82.0,74.1,29.97,NNE,18,0.0,0.0,77,0.00,,---,0.00,VWS V15.00,2014-08-28 00:54:00,
2014-08-27 20:59:00,82.0,74.1,29.97,NNE,18,0.0,0.0,77,0.00,,---,0.00,VWS V15.00,2014-08-28 00:59:00,
2014-08-27 21:04:00,81.8,73.9,29.97,NW,306,1.0,1.0,77,0.00,,---,0.00,VWS V15.00,2014-08-28 01:04:00,
2014-08-27 21:09:00,81.6,74.1,29.97,NW,308,2.0,4.0,78,0.00,,---,0.00,VWS V15.00,2014-08-28 01:09:00,
2014-08-27 21:14:00,81.5,74.0,29.97,NW,323,1.0,5.0,78,0.00,,---,0.00,VWS V15.00,2014-08-28 01:14:00,
2014-08-27 21:19:00,81.3,73.8,29.97,NNW,329,0.0,5.0,78,0.00,,---,0.00,VWS V15.00,2014-08-28 01:19:00,
2014-08-27 21:24:00,81.2,73.7,29.97,NNW,327,2.0,4.0,78,0.00,,---,0.00,VWS V15.00,2014-08-28 01:24:00,
2014-08-27 21:29:00,81.0,73.5,29.98,NNE,26,1.0,6.0,78,0.00,,---,0.00,VWS V15.00,2014-08-28 01:29:00,
2014-08-27 21:34:00,80.9,73.4,29.98,NNE,30,1.0,6.0,78,0.00,,---,0.00,VWS V15.00,2014-08-28 01:34:00,
2014-08-27 21:39:00,80.8,73.3,29.98,North,351,0.0,6.0,78,0.00,,---,0.00,VWS V15.00,2014-08-28 01:39:00,
2014-08-27 21:44:00,80.6,73.1,29.98,NNE,22,2.0,3.0,78,0.00,,---,0.00,VWS V15.00,2014-08-28 01:44:00,
2014-08-27 21:49:00,80.5,73.4,29.98,NNW,348,1.0,3.0,79,0.00,,---,0.00,VWS V15.00,2014-08-28 01:49:00,
2014-08-27 21:54:00,80.3,73.2,29.98,NNW,338,0.0,3.0,79,0.00,,---,0.00,VWS V15.00,2014-08-28 01:54:00,
2014-08-27 21:59:00,80.2,73.1,29.98,NW,305,1.0,3.0,79,0.00,,---,0.00,VWS V15.00,2014-08-28 01:59:00,
2014-08-27 22:04:00,80.0,73.3,29.98,North,11,0.0,2.0,80,0.00,,---,0.00,VWS V15.00,2014-08-28 02:04:00,
2014-08-27 22:09:00,79.9,73.2,29.98,NNW,329,0.0,4.0,80,0.00,,---,0.00,VWS V15.00,2014-08-28 02:09:00,
2014-08-27 22:14:00,79.7,73.0,29.99,NNW,328,0.0,2.0,80,0.00,,---,0.00,VWS V15.00,2014-08-28 02:14:00,
2014-08-27 22:19:00,79.6,73.3,29.99,NNE,19,0.0,2.0,81,0.00,,---,0.00,VWS V15.00,2014-08-28 02:19:00,
2014-08-27 22:24:00,79.5,73.2,29.99,North,4,2.0,3.0,81,0.00,,---,0.00,VWS V15.00,2014-08-28 02:24:00,
2014-08-27 22:29:00,79.4,73.1,29.99,NW,325,1.0,3.0,81,0.00,,---,0.00,VWS V15.00,2014-08-28 02:29:00,
2014-08-27 22:34:00,79.2,72.9,29.99,NNW,346,1.0,2.0,81,0.00,,---,0.00,VWS V15.00,2014-08-28 02:34:00,
2014-08-27 22:39:00,79.2,72.9,29.99,North,6,0.0,3.0,81,0.00,,---,0.00,VWS V15.00,2014-08-28 02:39:00,
2014-08-27 22:44:00,79.0,72.7,29.99,NNW,344,1.0,2.0,81,0.00,,---,0.00,VWS V15.00,2014-08-28 02:44:00,
2014-08-27 22:49:00,78.8,72.8,29.99,NNW,345,0.0,2.0,82,0.00,,---,0.00,VWS V15.00,2014-08-28 02:49:00,
2014-08-27 22:54:00,78.6,72.7,30.00,North,1,0.0,0.0,82,0.00,,---,0.00,VWS V15.00,2014-08-28 02:54:00,
2014-08-27 22:59:00,78.5,72.6,30.00,NE,43,0.0,0.0,82,0.00,,---,0.00,VWS V15.00,2014-08-28 02:59:00,
2014-08-27 23:04:00,78.3,72.4,30.00,NNW,334,0.0,2.0,82,0.00,,---,0.00,VWS V15.00,2014-08-28 03:04:00,
2014-08-27 23:09:00,78.2,72.3,30.00,NNW,338,1.0,3.0,82,0.00,,---,0.00,VWS V15.00,2014-08-28 03:09:00,
2014-08-27 23:15:00,78.1,72.5,30.00,North,359,1.0,2.0,83,0.00,,---,0.00,VWS V15.00,2014-08-28 03:15:00,
2014-08-27 23:20:00,78.0,72.4,30.00,North,350,1.0,2.0,83,0.00,,---,0.00,VWS V15.00,2014-08-28 03:20:00,
2014-08-27 23:25:00,77.9,72.0,30.00,NE,37,1.0,3.0,82,0.00,,---,0.00,VWS V15.00,2014-08-28 03:25:00,
2014-08-27 23:30:00,77.9,72.0,30.00,NNW,335,2.0,7.0,82,0.00,,---,0.00,VWS V15.00,2014-08-28 03:30:00,